Newport, OR (97365)

11:34 AM PST on November 21, 2014 (GMT -0800)
K7BAW-Agate Beach | Change Station
CLOSE
Current Station
Personal Weather Station
Location: Newport, OR
Elevation: 75 ft
Nearby Weather Stations
Active Advisory: High Wind Warning

Elev 75 ft 44.66 °N, 124.05 °W | Updated 36 seconds ago

Rain
Rain
52.5 °F
Feels Like 52.5 °F
N
8.0
Wind Variable Wind from SSE
Gusts 8.0 mph

Today
High -- | Low -- °F
--% Chance of Precip.
Yesterday
High -- | Low -- °F
Precip. -- in
7:20 AM 4:42 PM
Waning Crescent, 1% visible
Pressure 29.70 in
Visibility 7.0 miles
Clouds Mostly Cloudy 1400 ft
Overcast 1900 ft
Dew Point 51 °F
Humidity 96%
Rainfall 0.13 in
Snow Depth Not available.
UV 1 out of 12
Pollen .10 out of 12
Air Quality Not available.
Flu Activity Not available.
METAR KONP 211915Z AUTO 17015G31KT 7SM -RA BKN014 OVC019 11/10 A2970 RMK AO2 P0001

More Conditions Fewer Conditions

Pressure 29.70 in
Visibility 7.0 miles
Clouds Mostly Cloudy 1400 ft
Overcast 1900 ft
Dew Point 51 °F
Humidity 96%
Rainfall 0.13 in
Snow Depth Not available.
UV 1 out of 12
Pollen .10 out of 12
Air Quality Not available.
Flu Activity Not available.
METAR KONP 211915Z AUTO 17015G31KT 7SM -RA BKN014 OVC019 11/10 A2970 RMK AO2 P0001

More Conditions Fewer Conditions

10-Day Weather Forecast

Almanac

Astronomy

Nov. 21, 2014 Rise Set
Actual Time
Civil Twilight
Nautical Twilight
Astronomical Twilight
Moon
Length of Visible Light
Length of Day
Tomorrow will be .
, % of the Moon is Illuminated

Today's Extremes

State Highs State Lows

Community

WunderPhotos

Upload Photos

1,772,703 photos uploaded!

WunderBlogs® & News

Nearby

Air Quality

  Air Quality AQ Index Pollutant
Not available.

Snow Depth

Station Depth Elevation

Earthquake Activity

City Distance Mag. Time & Date
Minimum magnitude displayed is 2.5.

Coastal Water Temperatures

Place Temperature

Nearby Weather Stations